Airport View

Enter ICAO identifier to see the current METAR for that AWOS.

KFNL for example

KPIT 271351Z 32008KT 2SM R28R/5500VP6000FT -SN BKN015 OVC022 M07/M09 A2992

27 Jan 2015 14:20

Phone: 412-472-0145

Other Area AWOS: KAGC - KBVI - KBTP - KAFJ

TAF KPIT 271120Z 2712/2818 32008KT 6SM -SN OVC010 TEMPO 2712/2714 4SM -SN FM271700 33012KT P6SM OVC025 FM280400 34008KT P6SM BKN025 FM281300 VRB03KT P6SM SKC